Time;durP1;ratioP1;P1;durP2;ratioP2;P2;SDS_P1;SDS_P2;PMS_P1;PMS_P2;Temp;Humidity;BMP_temperature;BMP_pressure;BME280_temperature;BME280_humidity;BME280_pressure;Samples;Min_cycle;Max_cycle;Signal;HPM_P1;HPM_P2
2021/05/05 00:02:16;;;;;;;5.30;4.43;;;12.60;99.90;;;;;;5033983;28;20515;-48
2021/05/05 00:04:43;;;;;;;4.67;4.27;;;12.50;99.90;;;;;;5033942;28;20479;-47
2021/05/05 00:07:09;;;;;;;10.43;4.60;;;12.60;99.90;;;;;;5033698;28;20467;-48
2021/05/05 00:09:36;;;;;;;5.10;4.60;;;12.50;99.90;;;;;;5033075;28;20499;-48
2021/05/05 00:12:02;;;;;;;5.90;5.20;;;12.30;99.90;;;;;;5033599;28;20831;-48
2021/05/05 00:14:30;;;;;;;6.93;5.20;;;12.30;99.90;;;;;;5033811;28;20525;-47
2021/05/05 00:16:56;;;;;;;5.13;4.70;;;12.30;99.90;;;;;;5033552;28;20456;-47
2021/05/05 00:19:24;;;;;;;5.50;5.00;;;12.40;99.90;;;;;;5033567;28;21008;-48
2021/05/05 00:21:50;;;;;;;5.63;5.03;;;12.50;99.90;;;;;;5033517;28;20453;-47
2021/05/05 00:24:17;;;;;;;6.33;5.00;;;12.30;99.90;;;;;;5033098;28;20459;-48
2021/05/05 00:26:43;;;;;;;5.80;5.30;;;12.20;99.90;;;;;;5033433;28;20536;-47
2021/05/05 00:29:10;;;;;;;4.87;4.40;;;12.20;99.90;;;;;;5033210;28;21172;-47
2021/05/05 00:31:38;;;;;;;7.30;4.60;;;12.30;99.90;;;;;;5033083;28;20460;-47
2021/05/05 00:34:05;;;;;;;5.63;5.07;;;12.30;99.90;;;;;;5033221;28;20449;-47
2021/05/05 00:36:32;;;;;;;5.43;4.83;;;12.40;99.90;;;;;;5032641;28;20468;-48
2021/05/05 00:38:59;;;;;;;6.33;5.70;;;12.40;99.90;;;;;;5033251;28;20475;-46
2021/05/05 00:41:26;;;;;;;9.70;5.50;;;12.20;99.90;;;;;;5033043;28;21012;-48
2021/05/05 00:43:53;;;;;;;6.10;5.50;;;12.10;99.90;;;;;;5032707;28;20829;-47
2021/05/05 00:46:20;;;;;;;5.90;5.30;;;12.10;99.90;;;;;;5032976;28;20457;-47
2021/05/05 00:48:48;;;;;;;6.33;4.97;;;12.00;99.90;;;;;;5032705;28;20481;-47
2021/05/05 00:51:16;;;;;;;6.60;5.73;;;12.00;99.90;;;;;;5032400;28;20475;-46
2021/05/05 00:53:42;;;;;;;8.10;5.70;;;12.00;99.90;;;;;;5024842;28;20452;-47
2021/05/05 00:56:09;;;;;;;6.20;5.07;;;11.80;99.90;;;;;;5032762;28;20453;-48
2021/05/05 00:58:37;;;;;;;5.40;4.90;;;11.80;99.90;;;;;;5033077;28;20471;-48
2021/05/05 01:01:05;;;;;;;6.50;5.67;;;11.70;99.90;;;;;;5032429;28;20449;-47
2021/05/05 01:03:32;;;;;;;6.77;5.40;;;11.60;99.90;;;;;;5032507;28;20455;-47
2021/05/05 01:06:02;;;;;;;7.10;5.77;;;11.70;99.90;;;;;;5032053;28;21032;-48
2021/05/05 01:08:31;;;;;;;7.50;5.00;;;11.80;99.90;;;;;;5032109;28;20487;-47
2021/05/05 01:10:58;;;;;;;5.60;4.87;;;11.90;99.90;;;;;;5032594;28;20481;-47
2021/05/05 01:13:26;;;;;;;6.23;5.63;;;11.80;99.90;;;;;;5032881;28;20457;-47
2021/05/05 01:15:52;;;;;;;9.07;5.90;;;11.90;99.90;;;;;;5031870;28;21024;-47
2021/05/05 01:18:19;;;;;;;6.73;5.07;;;11.50;99.90;;;;;;5032267;28;20456;-48
2021/05/05 01:20:45;;;;;;;7.57;5.73;;;11.40;99.90;;;;;;5032500;28;20476;-46
2021/05/05 01:23:13;;;;;;;8.13;6.00;;;11.30;99.90;;;;;;5032030;28;20457;-48
2021/05/05 01:25:39;;;;;;;5.70;5.10;;;11.40;99.90;;;;;;5031913;28;20887;-47
2021/05/05 01:28:06;;;;;;;7.10;5.77;;;11.60;99.90;;;;;;5032465;28;20966;-47
2021/05/05 01:30:33;;;;;;;10.10;5.90;;;11.80;99.90;;;;;;5032678;28;20496;-48
2021/05/05 01:33:00;;;;;;;7.70;5.40;;;11.70;99.90;;;;;;5031647;28;20449;-48
2021/05/05 01:35:26;;;;;;;7.17;5.40;;;11.70;99.90;;;;;;5032255;28;20459;-47
2021/05/05 01:37:53;;;;;;;6.07;5.47;;;11.70;99.90;;;;;;5032382;28;20456;-48
2021/05/05 01:40:25;;;;;;;6.47;5.70;;;11.80;99.90;;;;;;5032238;28;20888;-48
2021/05/05 01:42:52;;;;;;;6.93;6.23;;;11.80;99.90;;;;;;5032481;28;20598;-47
2021/05/05 01:45:19;;;;;;;6.07;5.47;;;11.70;99.90;;;;;;5032363;28;20448;-48
2021/05/05 01:47:46;;;;;;;7.00;5.70;;;11.70;99.90;;;;;;5031410;28;20452;-47
2021/05/05 01:50:13;;;;;;;6.27;5.57;;;11.80;99.90;;;;;;5031109;28;20986;-48
2021/05/05 01:52:39;;;;;;;5.77;5.20;;;11.90;99.90;;;;;;5032254;28;20829;-47
2021/05/05 01:55:09;;;;;;;7.37;5.40;;;11.80;99.90;;;;;;5031537;28;20962;-47
2021/05/05 01:57:39;;;;;;;6.40;5.73;;;11.90;99.90;;;;;;5032286;28;20456;-48
2021/05/05 02:00:12;;;;;;;6.00;5.40;;;11.90;99.90;;;;;;5031682;28;20563;-46
2021/05/05 02:02:38;;;;;;;7.00;6.10;;;11.80;99.90;;;;;;5030112;28;20444;-47
2021/05/05 02:05:06;;;;;;;7.00;6.23;;;11.50;99.90;;;;;;5031278;28;20459;-47
2021/05/05 02:07:33;;;;;;;7.30;5.93;;;11.30;99.90;;;;;;5032122;28;20507;-47
2021/05/05 02:10:00;;;;;;;7.10;5.93;;;11.10;99.90;;;;;;5031246;28;20487;-47
2021/05/05 02:12:28;;;;;;;8.60;5.40;;;11.00;99.90;;;;;;5031184;28;20968;-48
2021/05/05 02:14:56;;;;;;;7.30;6.37;;;11.00;99.90;;;;;;5030794;28;20501;-47
2021/05/05 02:17:22;;;;;;;7.50;6.20;;;11.00;99.90;;;;;;5030599;28;20449;-47
2021/05/05 02:19:49;;;;;;;8.10;6.17;;;11.00;99.90;;;;;;5030223;28;20982;-48
2021/05/05 02:22:15;;;;;;;8.40;6.20;;;11.20;99.90;;;;;;5031129;28;20452;-47
2021/05/05 02:24:42;;;;;;;6.20;5.60;;;11.40;99.90;;;;;;5031051;28;20457;-48
2021/05/05 02:27:09;;;;;;;7.50;5.40;;;11.50;99.90;;;;;;5031003;28;20502;-47
2021/05/05 02:29:35;;;;;;;6.23;5.47;;;11.40;99.90;;;;;;5029995;28;20495;-47
2021/05/05 02:32:07;;;;;;;6.00;5.37;;;11.40;99.90;;;;;;5030367;28;20550;-47
2021/05/05 02:34:34;;;;;;;6.20;5.60;;;11.50;99.90;;;;;;5031103;28;20506;-47
2021/05/05 02:37:00;;;;;;;8.37;6.00;;;11.60;99.90;;;;;;5031099;28;20449;-48
2021/05/05 02:39:27;;;;;;;6.93;5.80;;;11.60;99.90;;;;;;5030978;28;20464;-46
2021/05/05 02:41:53;;;;;;;6.17;5.57;;;11.40;99.90;;;;;;5030217;28;20958;-47
2021/05/05 02:44:20;;;;;;;9.27;6.00;;;11.40;99.90;;;;;;5029579;28;20460;-48
2021/05/05 02:46:47;;;;;;;5.87;5.27;;;11.40;99.90;;;;;;5030229;28;20479;-47
2021/05/05 02:49:14;;;;;;;5.60;5.10;;;11.60;99.90;;;;;;5030445;28;20484;-47
2021/05/05 02:51:41;;;;;;;11.37;5.83;;;11.80;99.90;;;;;;5030473;28;20452;-47
2021/05/05 02:54:07;;;;;;;8.53;5.40;;;11.60;99.90;;;;;;5030790;28;20476;-48
2021/05/05 02:56:34;;;;;;;6.90;5.60;;;11.60;99.90;;;;;;5030059;28;20506;-47
2021/05/05 02:59:00;;;;;;;8.63;5.40;;;11.70;99.90;;;;;;5030614;28;20522;-47
2021/05/05 03:01:27;;;;;;;8.90;6.00;;;11.60;99.90;;;;;;5033106;28;20502;-47
2021/05/05 03:03:53;;;;;;;7.13;5.50;;;11.60;99.90;;;;;;5033964;28;20519;-47
2021/05/05 03:06:21;;;;;;;5.87;5.30;;;11.70;99.90;;;;;;5032955;28;20444;-47
2021/05/05 03:08:47;;;;;;;7.17;6.00;;;11.80;99.90;;;;;;5010562;28;642418;-47
2021/05/05 03:11:14;;;;;;;6.10;5.50;;;11.50;99.90;;;;;;5035048;28;20474;-47
2021/05/05 03:13:40;;;;;;;6.93;5.63;;;11.60;99.90;;;;;;5035277;28;20457;-48
2021/05/05 03:16:07;;;;;;;6.07;5.47;;;11.60;99.90;;;;;;5035205;28;20829;-48
2021/05/05 03:18:34;;;;;;;6.50;5.53;;;11.70;99.90;;;;;;5035406;28;20944;-47
2021/05/05 03:21:00;;;;;;;8.10;6.33;;;11.20;99.90;;;;;;5034987;28;20452;-49
2021/05/05 03:23:28;;;;;;;6.53;5.40;;;11.00;99.90;;;;;;5034903;28;20448;-48
2021/05/05 03:25:55;;;;;;;6.03;4.77;;;11.20;99.90;;;;;;5034677;28;20456;-48
2021/05/05 03:28:22;;;;;;;6.20;5.37;;;11.20;99.90;;;;;;5035009;28;20459;-48
2021/05/05 03:30:48;;;;;;;7.53;5.90;;;11.30;99.90;;;;;;5034814;28;20464;-47
2021/05/05 03:33:15;;;;;;;8.03;5.73;;;11.00;99.90;;;;;;5034774;28;20440;-48
2021/05/05 03:35:41;;;;;;;10.83;5.77;;;11.00;99.90;;;;;;5029898;28;20444;-47
2021/05/05 03:38:08;;;;;;;7.53;5.83;;;10.90;99.90;;;;;;5034574;28;20451;-48
2021/05/05 03:40:36;;;;;;;6.20;5.53;;;10.80;99.90;;;;;;5034807;28;20464;-48
2021/05/05 03:43:02;;;;;;;6.33;5.70;;;10.90;99.90;;;;;;5034746;28;20471;-48
2021/05/05 03:45:30;;;;;;;5.63;5.03;;;10.90;99.90;;;;;;5034481;28;20949;-48
2021/05/05 03:47:56;;;;;;;8.57;5.63;;;10.90;99.90;;;;;;5034350;28;20452;-48
2021/05/05 03:50:23;;;;;;;6.37;5.33;;;10.90;99.90;;;;;;5034642;28;20492;-48
2021/05/05 03:52:49;;;;;;;9.60;5.70;;;11.00;99.90;;;;;;5034102;28;20452;-48
2021/05/05 03:55:16;;;;;;;8.30;5.77;;;10.90;99.90;;;;;;5034138;28;20453;-47
2021/05/05 03:57:44;;;;;;;8.80;6.00;;;10.80;99.90;;;;;;5034642;28;20453;-47
2021/05/05 04:00:11;;;;;;;7.30;5.97;;;10.80;99.90;;;;;;5033892;28;20468;-48
2021/05/05 04:02:38;;;;;;;9.60;5.93;;;10.90;99.90;;;;;;5034240;28;20456;-48
2021/05/05 04:05:05;;;;;;;9.80;6.90;;;11.10;99.90;;;;;;5034206;28;20452;-47
2021/05/05 04:07:32;;;;;;;9.10;7.30;;;11.10;99.90;;;;;;5029648;28;20455;-48
2021/05/05 04:09:58;;;;;;;12.93;7.40;;;11.00;99.90;;;;;;5043936;23;20505;-53
2021/05/05 04:12:28;;;;;;;7.00;6.27;;;10.90;99.90;;;;;;5013269;28;20461;-52
2021/05/05 04:14:56;;;;;;;9.27;7.13;;;10.80;99.90;;;;;;5003868;28;20449;-53
2021/05/05 04:17:23;;;;;;;9.70;7.53;;;10.60;99.90;;;;;;5014087;28;20541;-52
2021/05/05 04:19:50;;;;;;;11.30;7.87;;;10.40;99.90;;;;;;5014287;28;20833;-52
2021/05/05 04:22:17;;;;;;;10.93;8.23;;;10.50;99.90;;;;;;5013589;28;20449;-53
2021/05/05 04:24:43;;;;;;;10.40;7.30;;;10.70;99.90;;;;;;5014271;28;20449;-52
2021/05/05 04:27:10;;;;;;;12.47;9.90;;;10.90;99.90;;;;;;5014338;28;20483;-54
2021/05/05 04:29:37;;;;;;;15.30;11.53;;;11.00;99.90;;;;;;5009808;28;21307;-53
2021/05/05 04:32:05;;;;;;;12.60;10.17;;;11.00;99.90;;;;;;4995197;28;20825;-53
2021/05/05 04:34:31;;;;;;;14.87;12.13;;;10.90;99.90;;;;;;4994923;28;20458;-53
2021/05/05 04:36:59;;;;;;;11.27;8.33;;;10.80;99.90;;;;;;4995032;28;20508;-53
2021/05/05 04:39:25;;;;;;;8.70;7.30;;;10.90;99.90;;;;;;4994962;28;20470;-53
2021/05/05 04:41:52;;;;;;;8.43;7.30;;;10.80;99.90;;;;;;4995092;28;20462;-52
2021/05/05 04:44:18;;;;;;;9.20;7.37;;;10.70;99.90;;;;;;4994817;28;20454;-53
2021/05/05 04:46:46;;;;;;;19.23;13.60;;;10.70;99.90;;;;;;4998098;28;20447;-52
2021/05/05 04:49:13;;;;;;;14.00;9.13;;;10.70;99.90;;;;;;5007178;28;20858;-52
2021/05/05 04:51:40;;;;;;;15.43;9.80;;;10.70;99.90;;;;;;5013886;28;20458;-52
2021/05/05 04:54:07;;;;;;;19.80;11.80;;;10.80;99.90;;;;;;5010525;28;20456;-52
2021/05/05 04:56:34;;;;;;;11.30;8.13;;;10.80;99.90;;;;;;5003750;28;20458;-52
2021/05/05 04:59:01;;;;;;;11.63;8.40;;;10.60;99.90;;;;;;5010324;28;20895;-52
2021/05/05 05:01:28;;;;;;;16.63;11.37;;;10.60;99.90;;;;;;5013633;28;20458;-52
2021/05/05 05:03:55;;;;;;;12.60;8.00;;;10.70;99.90;;;;;;5013610;28;20477;-53
2021/05/05 05:06:22;;;;;;;10.73;7.70;;;10.60;99.90;;;;;;5004366;28;20473;-53
2021/05/05 05:08:49;;;;;;;12.53;8.20;;;10.40;99.90;;;;;;5006407;28;20487;-53
2021/05/05 05:11:16;;;;;;;10.90;7.40;;;10.40;99.90;;;;;;4995092;28;20544;-52
2021/05/05 05:13:44;;;;;;;3.57;2.00;;;10.10;99.90;;;;;;4998197;28;20476;-52
2021/05/05 05:16:10;;;;;;;1.60;0.90;;;9.80;99.90;;;;;;5008991;28;20457;-52
2021/05/05 05:18:37;;;;;;;0.60;0.50;;;9.70;99.90;;;;;;5009278;28;20452;-52
2021/05/05 05:21:05;;;;;;;0.60;0.50;;;9.50;99.90;;;;;;4996816;28;20473;-52
2021/05/05 05:23:34;;;;;;;0.70;0.60;;;9.30;99.90;;;;;;4994041;28;20466;-52
2021/05/05 05:26:01;;;;;;;1.73;0.50;;;9.10;99.90;;;;;;4998899;28;20449;-51
2021/05/05 05:28:28;;;;;;;1.33;0.50;;;9.00;99.90;;;;;;4998044;28;20979;-52
2021/05/05 05:30:55;;;;;;;0.60;0.40;;;9.00;99.90;;;;;;4999055;28;20488;-52
2021/05/05 05:33:21;;;;;;;0.70;0.70;;;8.90;99.90;;;;;;4999318;28;20965;-52
2021/05/05 05:35:48;;;;;;;0.73;0.50;;;8.90;99.90;;;;;;4993867;28;20451;-52
2021/05/05 05:38:14;;;;;;;0.80;0.53;;;8.80;99.90;;;;;;5000569;28;20449;-52
2021/05/05 05:40:42;;;;;;;0.80;0.60;;;8.90;99.90;;;;;;5008938;28;21001;-52
2021/05/05 05:43:08;;;;;;;0.77;0.60;;;8.80;99.90;;;;;;4994929;28;20449;-52
2021/05/05 05:45:42;;;;;;;1.10;1.00;;;8.90;99.90;;;;;;5129427;27;20529;-52
2021/05/05 05:48:09;;;;;;;0.70;0.50;;;9.00;99.90;;;;;;5128996;27;20456;-53
2021/05/05 05:50:35;;;;;;;3.07;2.20;;;9.10;99.90;;;;;;5129324;27;20525;-53
2021/05/05 05:53:03;;;;;;;2.20;1.70;;;9.20;99.90;;;;;;5129357;27;20968;-53
2021/05/05 05:55:31;;;;;;;8.27;5.47;;;9.60;99.90;;;;;;5122892;27;20453;-53
2021/05/05 05:57:57;;;;;;;8.20;5.60;;;9.60;99.90;;;;;;5119227;28;20539;-53
2021/05/05 06:00:25;;;;;;;7.83;6.73;;;9.70;99.90;;;;;;5120987;27;20476;-53
2021/05/05 06:02:53;;;;;;;11.70;8.47;;;9.70;99.90;;;;;;5130063;27;20825;-53
2021/05/05 06:05:19;;;;;;;5.70;3.00;;;9.70;99.90;;;;;;5111386;28;20476;-53
2021/05/05 06:07:46;;;;;;;4.97;4.33;;;9.50;99.90;;;;;;5126551;28;20444;-53
2021/05/05 06:10:13;;;;;;;14.77;7.03;;;9.20;99.90;;;;;;5111170;27;20469;-53
2021/05/05 06:12:40;;;;;;;7.20;5.57;;;9.40;99.90;;;;;;5122381;28;20799;-53
2021/05/05 06:15:09;;;;;;;3.90;2.70;;;9.50;99.90;;;;;;5127606;27;20948;-53
2021/05/05 06:17:35;;;;;;;9.10;6.27;;;9.60;99.90;;;;;;5129615;27;20448;-53
2021/05/05 06:20:04;;;;;;;4.13;2.87;;;9.70;99.90;;;;;;5129568;27;20472;-53
2021/05/05 06:22:31;;;;;;;5.70;3.80;;;9.70;99.90;;;;;;5129383;27;20941;-53
2021/05/05 06:24:57;;;;;;;13.80;7.97;;;9.70;99.90;;;;;;5128437;27;20480;-53
2021/05/05 06:27:24;;;;;;;2.87;2.60;;;9.70;99.90;;;;;;5108920;28;20445;-53
2021/05/05 06:29:50;;;;;;;3.33;1.07;;;9.60;99.90;;;;;;5108936;28;20512;-53
2021/05/05 06:32:17;;;;;;;1.53;1.43;;;9.50;99.90;;;;;;5108878;28;20995;-52
2021/05/05 06:34:43;;;;;;;1.20;1.10;;;9.40;99.90;;;;;;5108684;28;20433;-53
2021/05/05 06:37:10;;;;;;;1.30;1.20;;;9.10;99.90;;;;;;5108766;28;20448;-53
2021/05/05 06:39:37;;;;;;;1.40;1.30;;;9.10;99.90;;;;;;5114742;28;20875;-53
2021/05/05 06:42:04;;;;;;;8.20;6.13;;;9.40;99.90;;;;;;5129173;27;20938;-53
2021/05/05 06:44:30;;;;;;;2.70;1.10;;;9.40;99.90;;;;;;5132604;27;20491;-51
2021/05/05 06:46:57;;;;;;;3.03;1.17;;;9.40;99.90;;;;;;5129316;27;20492;-53
2021/05/05 06:49:24;;;;;;;2.00;0.80;;;9.00;99.90;;;;;;5128970;27;20474;-52
2021/05/05 06:51:51;;;;;;;4.20;0.67;;;8.60;99.90;;;;;;5128937;27;20444;-52
2021/05/05 06:54:19;;;;;;;0.80;0.63;;;8.40;99.90;;;;;;5116616;27;20445;-52
2021/05/05 06:56:45;;;;;;;1.00;0.90;;;8.30;99.90;;;;;;5096336;28;20960;-53
2021/05/05 06:59:11;;;;;;;0.97;0.60;;;8.30;99.90;;;;;;5094870;28;20452;-52
2021/05/05 07:01:38;;;;;;;2.00;0.60;;;8.30;99.90;;;;;;5094728;28;20457;-53
2021/05/05 07:04:06;;;;;;;0.60;0.43;;;8.40;99.90;;;;;;5094528;28;20480;-53
2021/05/05 07:06:33;;;;;;;0.70;0.40;;;8.20;99.90;;;;;;5094523;28;20444;-52
2021/05/05 07:08:59;;;;;;;1.73;0.57;;;8.10;99.90;;;;;;5110510;28;20448;-53
2021/05/05 07:11:27;;;;;;;0.80;0.43;;;8.10;99.90;;;;;;5094191;28;20465;-53
2021/05/05 07:13:54;;;;;;;0.70;0.50;;;8.20;99.90;;;;;;5099577;28;20942;-53
2021/05/05 07:16:21;;;;;;;1.60;0.80;;;8.20;99.90;;;;;;5114848;28;20449;-53
2021/05/05 07:18:47;;;;;;;1.40;0.60;;;8.20;99.90;;;;;;5115043;28;20475;-53
2021/05/05 07:21:14;;;;;;;0.87;0.50;;;8.20;99.90;;;;;;5114613;27;20469;-53
2021/05/05 07:23:43;;;;;;;0.90;0.50;;;8.20;99.90;;;;;;5112943;28;20535;-53
2021/05/05 07:26:09;;;;;;;1.13;0.70;;;8.30;99.90;;;;;;5094151;28;20507;-53
2021/05/05 07:28:37;;;;;;;2.87;1.40;;;8.30;99.90;;;;;;5094179;28;20446;-52
2021/05/05 07:31:03;;;;;;;1.17;1.07;;;8.30;99.90;;;;;;5105170;28;20480;-52
2021/05/05 07:33:30;;;;;;;2.73;1.13;;;8.30;99.90;;;;;;5108555;28;20490;-52
2021/05/05 07:35:58;;;;;;;1.60;0.93;;;8.30;99.90;;;;;;5110195;28;20486;-53
2021/05/05 07:46:34;;;;;;;1.53;1.07;;;8.20;99.90;;;;;;5117543;28;20421;-52
2021/05/05 07:49:02;;;;;;;1.10;1.00;;;8.30;99.90;;;;;;5113821;27;20446;-53
2021/05/05 07:51:30;;;;;;;0.90;0.70;;;8.40;99.90;;;;;;5097755;28;20441;-52
2021/05/05 07:53:57;;;;;;;0.93;0.70;;;8.40;99.90;;;;;;5097372;28;20449;-52
2021/05/05 07:56:23;;;;;;;0.70;0.60;;;8.40;99.90;;;;;;5097827;28;20555;-52
2021/05/05 07:58:50;;;;;;;0.67;0.53;;;8.30;99.90;;;;;;5097224;28;20449;-53
2021/05/05 08:01:17;;;;;;;0.70;0.50;;;8.30;99.90;;;;;;5096817;28;20895;-53
2021/05/05 08:03:44;;;;;;;0.90;0.80;;;8.50;99.90;;;;;;5097139;28;20441;-53
2021/05/05 08:06:11;;;;;;;0.80;0.70;;;8.60;99.90;;;;;;5097081;28;20450;-53
2021/05/05 08:08:37;;;;;;;0.70;0.50;;;8.70;99.90;;;;;;5096636;28;21008;-53
2021/05/05 08:11:04;;;;;;;0.70;0.50;;;8.60;99.90;;;;;;5097027;28;20469;-53
2021/05/05 08:13:31;;;;;;;1.13;0.40;;;8.40;99.90;;;;;;5098985;28;20476;-52
2021/05/05 08:15:58;;;;;;;0.60;0.60;;;8.50;99.90;;;;;;5104627;28;20499;-52
2021/05/05 08:18:25;;;;;;;0.80;0.50;;;8.50;99.90;;;;;;5111173;28;20448;-53
2021/05/05 08:20:52;;;;;;;0.60;0.57;;;8.50;99.90;;;;;;5116654;28;20465;-53
2021/05/05 08:23:19;;;;;;;0.83;0.60;;;8.40;99.90;;;;;;5110011;28;20521;-53
2021/05/05 08:25:47;;;;;;;0.70;0.60;;;8.30;99.90;;;;;;5109082;28;20574;-53
2021/05/05 08:28:14;;;;;;;0.60;0.60;;;8.40;99.90;;;;;;5116200;28;20449;-52
2021/05/05 08:30:41;;;;;;;1.57;0.80;;;8.50;99.90;;;;;;5108470;28;20504;-53
2021/05/05 08:33:09;;;;;;;0.70;0.70;;;8.60;99.90;;;;;;5104590;28;20828;-54
2021/05/05 08:35:36;;;;;;;3.10;1.27;;;8.70;99.90;;;;;;5103052;28;20451;-52
2021/05/05 08:38:03;;;;;;;0.80;0.60;;;8.80;99.90;;;;;;5109135;28;20203;-53
2021/05/05 08:40:32;;;;;;;1.20;0.50;;;8.80;99.90;;;;;;5113320;28;20880;-53
2021/05/05 08:42:58;;;;;;;1.53;0.60;;;8.90;99.90;;;;;;5112992;28;20452;-53
2021/05/05 08:45:26;;;;;;;0.73;0.73;;;9.00;99.90;;;;;;5110520;28;20981;-53
2021/05/05 08:47:54;;;;;;;1.00;0.80;;;9.10;99.90;;;;;;5095797;28;20450;-54
2021/05/05 08:50:24;;;;;;;1.17;0.60;;;9.10;99.90;;;;;;5093271;28;20474;-54
2021/05/05 08:52:51;;;;;;;0.80;0.70;;;9.00;99.90;;;;;;5112767;28;20514;-53
2021/05/05 08:55:20;;;;;;;0.80;0.80;;;9.10;99.90;;;;;;5111269;28;20449;-54
2021/05/05 08:57:47;;;;;;;0.90;0.70;;;9.20;99.90;;;;;;5120331;27;20449;-54
2021/05/05 09:00:17;;;;;;;4.20;0.80;;;9.30;99.90;;;;;;5112590;28;20465;-53
2021/05/05 09:02:44;;;;;;;0.80;0.60;;;9.30;99.90;;;;;;5092580;28;20507;-53
2021/05/05 09:05:13;;;;;;;0.60;0.60;;;9.40;99.90;;;;;;5109335;28;20535;-53
2021/05/05 09:07:43;;;;;;;2.40;0.90;;;9.70;99.90;;;;;;5112684;28;20874;-53
2021/05/05 09:10:12;;;;;;;0.80;0.80;;;9.60;99.90;;;;;;5112436;28;20469;-53
2021/05/05 09:12:40;;;;;;;1.03;0.70;;;9.70;99.90;;;;;;5113762;27;20860;-53
2021/05/05 09:15:10;;;;;;;0.73;0.70;;;9.50;99.90;;;;;;5132608;27;20436;-54
2021/05/05 09:17:39;;;;;;;1.20;0.90;;;9.60;99.90;;;;;;5119315;27;20547;-53
2021/05/05 09:20:30;;;;;;;1.13;0.77;;;9.90;99.90;;;;;;5104722;28;20469;-53
2021/05/05 09:22:58;;;;;;;2.30;0.73;;;9.60;99.90;;;;;;5104279;28;20947;-53
2021/05/05 09:25:27;;;;;;;1.00;0.87;;;9.60;99.90;;;;;;5091452;28;20531;-53
2021/05/05 09:28:15;;;;;;;0.70;0.70;;;9.80;99.90;;;;;;5091848;28;20971;-54
2021/05/05 09:30:44;;;;;;;1.20;1.10;;;9.90;99.90;;;;;;5101638;28;20464;-53
2021/05/05 09:33:21;;;;;;;3.70;2.07;;;9.90;99.90;;;;;;5110611;28;20445;-53
2021/05/05 09:35:53;;;;;;;1.87;1.20;;;10.00;99.90;;;;;;5091229;28;20453;-54
2021/05/05 09:38:20;;;;;;;1.30;0.80;;;9.90;99.90;;;;;;5106421;28;20530;-53
2021/05/05 09:40:57;;;;;;;1.20;0.80;;;9.50;99.90;;;;;;5099592;28;20485;-53
2021/05/05 09:43:24;;;;;;;2.93;1.33;;;9.30;99.90;;;;;;5106723;28;20915;-53
2021/05/05 09:45:51;;;;;;;1.73;1.10;;;9.40;99.90;;;;;;5093812;28;20495;-53
2021/05/05 09:48:23;;;;;;;3.73;1.03;;;9.20;99.90;;;;;;5090444;28;20465;-53
2021/05/05 09:50:58;;;;;;;0.87;0.87;;;9.40;99.90;;;;;;5092109;28;20512;-53
2021/05/05 09:53:27;;;;;;;1.77;1.10;;;9.50;99.90;;;;;;5107222;28;20452;-53
2021/05/05 09:56:08;;;;;;;2.30;1.30;;;9.40;99.90;;;;;;5105377;28;20449;-53
2021/05/05 09:58:36;;;;;;;1.20;0.90;;;9.30;99.90;;;;;;5092056;28;20915;-53
2021/05/05 10:01:23;;;;;;;1.80;0.80;;;9.00;99.90;;;;;;5099044;28;20483;-53
2021/05/05 10:03:53;;;;;;;0.97;0.70;;;9.20;99.90;;;;;;5092163;28;20461;-53
2021/05/05 10:06:25;;;;;;;1.30;1.00;;;9.20;99.90;;;;;;5102843;28;20852;-53
2021/05/05 10:08:54;;;;;;;1.57;0.80;;;9.40;99.90;;;;;;5108876;28;20464;-53
2021/05/05 10:11:22;;;;;;;1.27;1.03;;;9.50;99.90;;;;;;5103911;22;21066;-49
2021/05/05 10:13:52;;;;;;;1.40;0.90;;;9.80;99.90;;;;;;5064728;28;20697;-49
2021/05/05 10:16:20;;;;;;;0.80;0.80;;;9.90;99.90;;;;;;5068826;28;20439;-49
2021/05/05 10:18:48;;;;;;;1.63;0.77;;;9.90;99.90;;;;;;5057729;28;20470;-50
2021/05/05 10:21:15;;;;;;;1.13;0.80;;;9.70;99.90;;;;;;5066113;28;20545;-51
2021/05/05 10:23:43;;;;;;;2.07;1.03;;;9.70;99.90;;;;;;5069536;28;20501;-50
2021/05/05 10:26:11;;;;;;;2.53;1.50;;;9.40;99.90;;;;;;5068390;28;20475;-50
2021/05/05 10:28:39;;;;;;;2.97;1.90;;;8.70;99.90;;;;;;5055550;28;20508;-49
2021/05/05 10:31:08;;;;;;;3.67;2.30;;;7.80;99.90;;;;;;5064801;28;20566;-49
2021/05/05 10:33:39;;;;;;;2.60;2.00;;;7.50;99.90;;;;;;5064402;28;21070;-50
2021/05/05 10:36:28;;;;;;;2.50;2.17;;;7.20;99.90;;;;;;5064219;28;20571;-49
2021/05/05 10:38:55;;;;;;;3.10;1.63;;;7.30;99.90;;;;;;5064771;28;20462;-49
2021/05/05 10:41:23;;;;;;;1.60;1.50;;;7.40;99.90;;;;;;5064373;28;20857;-50
2021/05/05 10:43:51;;;;;;;3.83;2.97;;;7.50;99.90;;;;;;5065641;28;20856;-49
2021/05/05 10:46:29;;;;;;;1.07;0.97;;;7.70;99.90;;;;;;5068285;28;20878;-49
2021/05/05 10:49:05;;;;;;;1.33;0.80;;;7.50;99.90;;;;;;5064229;28;20458;-50
2021/05/05 10:52:00;;;;;;;1.90;0.80;;;7.40;99.90;;;;;;5064296;28;20482;-49
2021/05/05 10:54:50;;;;;;;1.20;1.10;;;7.30;99.90;;;;;;5072878;28;20478;-49
2021/05/05 10:57:17;;;;;;;0.80;0.70;;;7.10;99.90;;;;;;5072908;28;20862;-49
2021/05/05 11:00:13;;;;;;;1.77;1.00;;;7.10;99.90;;;;;;5065891;28;20465;-49
2021/05/05 11:02:52;;;;;;;1.03;0.77;;;7.30;99.90;;;;;;5062868;28;21126;-49
2021/05/05 11:05:20;;;;;;;0.80;0.60;;;7.30;99.90;;;;;;5062304;28;20476;-49
2021/05/05 11:07:51;;;;;;;0.80;0.80;;;7.20;99.90;;;;;;5064359;28;20463;-49
2021/05/05 11:10:46;;;;;;;1.30;0.80;;;7.30;99.90;;;;;;5064767;28;20496;-49
2021/05/05 11:13:42;;;;;;;0.70;0.70;;;7.40;99.90;;;;;;5063789;28;20968;-49
2021/05/05 11:16:10;;;;;;;2.40;0.70;;;7.60;99.90;;;;;;5063683;28;20909;-50
2021/05/05 11:18:57;;;;;;;1.00;0.90;;;7.90;99.90;;;;;;5061847;28;20462;-49
2021/05/05 11:21:41;;;;;;;1.00;0.80;;;8.20;99.90;;;;;;5068748;28;21002;-49
2021/05/05 11:24:36;;;;;;;0.83;0.83;;;8.30;99.90;;;;;;5062724;28;20490;-49
2021/05/05 11:27:04;;;;;;;0.93;0.90;;;8.20;99.90;;;;;;5058340;28;20470;-51
2021/05/05 11:29:37;;;;;;;1.33;0.70;;;8.10;99.90;;;;;;5063098;28;20539;-50
2021/05/05 11:32:06;;;;;;;1.17;0.80;;;8.20;99.90;;;;;;5062585;28;20469;-50
2021/05/05 11:34:39;;;;;;;0.90;0.80;;;8.60;99.90;;;;;;5061829;28;20458;-51
2021/05/05 11:37:08;;;;;;;1.23;0.77;;;8.90;99.90;;;;;;5062874;28;20462;-51
2021/05/05 11:39:37;;;;;;;1.20;0.70;;;9.30;99.90;;;;;;5062785;28;21073;-50
2021/05/05 11:42:06;;;;;;;1.67;1.00;;;9.70;99.90;;;;;;5061917;28;20487;-50
2021/05/05 11:44:42;;;;;;;1.60;1.20;;;10.40;99.90;;;;;;5067453;28;21066;-49
2021/05/05 11:47:10;;;;;;;1.33;1.10;;;11.10;99.90;;;;;;5067623;28;20462;-49
2021/05/05 11:49:39;;;;;;;1.27;0.97;;;11.40;99.90;;;;;;5059402;28;20454;-50
2021/05/05 11:52:25;;;;;;;1.23;1.13;;;11.20;99.90;;;;;;5063359;28;20833;-49
2021/05/05 11:54:56;;;;;;;1.63;1.10;;;11.00;99.90;;;;;;5062123;28;20458;-49
2021/05/05 11:57:23;;;;;;;1.70;1.20;;;10.40;99.90;;;;;;5065319;28;20540;-49
2021/05/05 11:59:51;;;;;;;2.60;1.60;;;10.40;99.90;;;;;;5071740;28;20494;-50
2021/05/05 12:02:18;;;;;;;2.00;1.30;;;10.00;99.90;;;;;;5072658;28;20442;-49
2021/05/05 12:04:45;;;;;;;1.47;1.37;;;9.90;99.90;;;;;;5066733;28;20567;-49
2021/05/05 12:07:15;;;;;;;1.73;1.60;;;9.90;99.90;;;;;;5062375;28;20463;-49
2021/05/05 12:09:43;;;;;;;2.87;1.50;;;9.40;99.90;;;;;;5061285;28;20474;-49
2021/05/05 12:12:15;;;;;;;2.37;1.60;;;8.30;99.90;;;;;;5057890;28;20462;-48
2021/05/05 12:14:45;;;;;;;3.40;1.40;;;8.00;99.90;;;;;;5061360;28;20458;-49
2021/05/05 12:17:22;;;;;;;2.13;1.53;;;8.10;99.90;;;;;;5063006;28;20489;-49
2021/05/05 12:20:06;;;;;;;3.00;1.80;;;8.10;99.90;;;;;;5065316;28;20488;-49
2021/05/05 12:22:34;;;;;;;3.87;3.33;;;8.30;99.90;;;;;;5061805;28;20466;-49
2021/05/05 12:25:15;;;;;;;3.70;3.00;;;8.50;99.90;;;;;;5068496;28;20482;-48
2021/05/05 12:28:01;;;;;;;2.60;2.10;;;8.70;99.90;;;;;;5052978;28;20452;-48
2021/05/05 12:30:42;;;;;;;3.33;1.83;;;8.90;99.90;;;;;;5061339;28;20492;-49
2021/05/05 12:33:10;;;;;;;2.93;1.93;;;9.10;99.90;;;;;;5062153;28;21436;-50
2021/05/05 12:35:37;;;;;;;3.87;1.50;;;9.20;99.90;;;;;;5062980;28;20850;-50
2021/05/05 12:38:09;;;;;;;2.70;1.63;;;9.10;99.90;;;;;;5066806;28;20869;-49
2021/05/05 12:40:36;;;;;;;2.47;1.60;;;9.40;99.90;;;;;;5060990;28;20565;-49
2021/05/05 12:43:27;;;;;;;1.73;1.53;;;9.60;99.90;;;;;;5060870;28;20475;-49
2021/05/05 12:45:55;;;;;;;1.77;1.67;;;9.90;99.90;;;;;;5042266;28;20535;-49
2021/05/05 12:48:26;;;;;;;3.13;1.60;;;10.00;99.90;;;;;;5062048;28;20455;-50
2021/05/05 12:50:53;;;;;;;2.33;1.83;;;9.90;99.90;;;;;;5064719;28;20474;-50
2021/05/05 12:53:20;;;;;;;3.67;1.43;;;10.00;99.90;;;;;;5060780;28;20546;-49
2021/05/05 12:55:57;;;;;;;1.60;1.50;;;10.10;99.90;;;;;;5061057;28;20483;-50
2021/05/05 12:58:23;;;;;;;1.77;1.53;;;10.40;99.90;;;;;;5061097;28;20537;-49
2021/05/05 13:00:52;;;;;;;1.50;1.40;;;10.90;99.90;;;;;;5072012;28;20523;-49
2021/05/05 13:03:20;;;;;;;1.97;1.77;;;11.10;99.90;;;;;;5071169;28;20525;-50
2021/05/05 13:06:01;;;;;;;2.80;1.57;;;11.20;99.90;;;;;;5063271;28;20561;-50
2021/05/05 13:08:36;;;;;;;1.67;1.57;;;11.30;99.90;;;;;;5061765;28;20466;-50